createdAt,value
2018-03-29T00:02:01.426Z,3.80
2018-03-29T00:04:29.694Z,2.87
2018-03-29T00:06:57.158Z,3.10
2018-03-29T00:09:24.630Z,3.40
2018-03-29T00:11:52.122Z,2.47
2018-03-29T00:14:19.616Z,3.20
2018-03-29T00:16:47.105Z,3.03
2018-03-29T00:19:14.608Z,2.97
2018-03-29T00:21:42.104Z,2.73
2018-03-29T00:24:09.613Z,2.50
2018-03-29T00:26:37.279Z,2.60
2018-03-29T00:29:04.766Z,2.70
2018-03-29T00:31:32.227Z,2.50
2018-03-29T00:33:59.734Z,2.40
2018-03-29T00:36:27.960Z,1.97
2018-03-29T00:38:55.444Z,2.30
2018-03-29T00:41:22.930Z,2.27
2018-03-29T00:43:51.190Z,2.10
2018-03-29T00:46:19.475Z,1.97
2018-03-29T00:48:47.722Z,1.80
2018-03-29T00:51:15.199Z,1.93
2018-03-29T00:53:45.291Z,2.20
2018-03-29T00:56:12.799Z,2.23
2018-03-29T00:58:41.057Z,2.23
2018-03-29T01:01:08.535Z,2.10
2018-03-29T01:03:36.054Z,1.80
2018-03-29T01:06:04.243Z,2.53
2018-03-29T01:08:33.643Z,2.67
2018-03-29T01:11:01.138Z,2.23
2018-03-29T01:13:29.403Z,2.50
2018-03-29T01:15:57.014Z,2.30
2018-03-29T01:18:24.544Z,1.93
2018-03-29T01:20:52.117Z,2.47
2018-03-29T01:23:19.638Z,2.87
2018-03-29T01:25:47.909Z,3.07
2018-03-29T01:28:15.395Z,2.67
2018-03-29T01:30:42.920Z,2.70
2018-03-29T01:33:11.226Z,2.70
2018-03-29T01:35:38.781Z,3.20
2018-03-29T01:38:07.041Z,2.40
2018-03-29T01:40:34.522Z,3.13
2018-03-29T01:43:02.829Z,2.53
2018-03-29T01:45:30.510Z,2.80
2018-03-29T01:47:58.757Z,3.37
2018-03-29T01:50:26.273Z,3.07
2018-03-29T01:52:53.754Z,2.40
2018-03-29T01:55:21.257Z,2.63
2018-03-29T01:57:48.793Z,2.67
2018-03-29T02:00:16.300Z,2.80
2018-03-29T02:02:43.784Z,3.30
2018-03-29T02:05:12.021Z,2.63
2018-03-29T02:07:40.301Z,2.37
2018-03-29T02:10:08.574Z,3.07
2018-03-29T02:12:36.879Z,2.37
2018-03-29T02:15:04.449Z,2.30
2018-03-29T02:17:31.933Z,3.13
2018-03-29T02:19:59.455Z,2.00
2018-03-29T02:22:27.035Z,1.77
2018-03-29T02:24:54.595Z,2.20
2018-03-29T02:27:22.881Z,5.03
2018-03-29T02:29:50.367Z,2.20
2018-03-29T02:32:17.857Z,3.07
2018-03-29T02:34:45.319Z,2.27
2018-03-29T02:37:12.829Z,2.20
2018-03-29T02:39:40.400Z,2.20
2018-03-29T02:42:07.894Z,2.67
2018-03-29T02:44:35.516Z,2.70
2018-03-29T02:47:03.053Z,3.30
2018-03-29T02:49:30.610Z,2.43
2018-03-29T02:51:58.104Z,2.77
2018-03-29T02:54:25.622Z,3.30
2018-03-29T02:56:53.912Z,3.13
2018-03-29T02:59:22.221Z,2.97
2018-03-29T03:01:49.694Z,3.20
2018-03-29T03:04:17.213Z,3.10
2018-03-29T03:06:44.779Z,3.60
2018-03-29T03:09:12.335Z,3.37
2018-03-29T03:11:39.870Z,3.13
2018-03-29T03:14:08.100Z,3.70
2018-03-29T03:16:35.761Z,3.60
2018-03-29T03:19:03.307Z,3.10
2018-03-29T03:21:30.784Z,3.50
2018-03-29T03:23:58.424Z,3.50
2018-03-29T03:26:26.245Z,3.30
2018-03-29T03:28:53.741Z,2.80
2018-03-29T03:31:21.380Z,3.47
2018-03-29T03:33:48.954Z,3.50
2018-03-29T03:36:16.513Z,3.40
2018-03-29T03:38:44.068Z,3.70
2018-03-29T03:41:11.550Z,3.03
2018-03-29T03:43:39.092Z,3.90
2018-03-29T03:46:06.592Z,4.20
2018-03-29T03:48:34.084Z,3.40
2018-03-29T03:51:01.594Z,3.83
2018-03-29T03:53:29.082Z,3.60
2018-03-29T03:55:57.062Z,3.10
2018-03-29T03:58:24.539Z,3.70
2018-03-29T04:00:52.068Z,3.27
2018-03-29T04:03:19.606Z,4.53
2018-03-29T04:05:47.920Z,4.83
2018-03-29T04:08:15.424Z,4.00
2018-03-29T04:10:42.930Z,4.50
2018-03-29T04:13:10.445Z,4.10
2018-03-29T04:15:37.962Z,5.10
2018-03-29T04:18:05.664Z,4.50
2018-03-29T04:20:33.300Z,4.20
2018-03-29T04:23:00.800Z,4.60
2018-03-29T04:25:28.416Z,4.67
2018-03-29T04:27:55.924Z,3.43
2018-03-29T04:30:23.418Z,3.87
2018-03-29T04:32:50.939Z,3.80
2018-03-29T04:35:18.504Z,3.70
2018-03-29T04:37:46.016Z,4.30
2018-03-29T04:40:13.644Z,3.70
2018-03-29T04:42:41.206Z,3.80
2018-03-29T04:45:08.864Z,3.03
2018-03-29T04:47:37.352Z,3.23
2018-03-29T04:50:05.605Z,2.80
2018-03-29T04:52:33.078Z,2.67
2018-03-29T04:55:00.601Z,2.83
2018-03-29T04:57:28.154Z,2.80
2018-03-29T04:59:55.713Z,3.33
2018-03-29T05:02:23.185Z,2.83
2018-03-29T05:04:50.944Z,2.70
2018-03-29T05:07:18.525Z,2.97
2018-03-29T05:09:46.003Z,2.90
2018-03-29T05:12:13.648Z,2.67
2018-03-29T05:14:41.209Z,3.07
2018-03-29T05:17:08.697Z,2.73
2018-03-29T05:19:36.315Z,4.63
2018-03-29T05:22:03.801Z,2.87
2018-03-29T05:24:31.313Z,2.23
2018-03-29T05:26:58.788Z,3.30
2018-03-29T05:29:26.304Z,2.43
2018-03-29T05:31:54.555Z,2.37
2018-03-29T05:34:22.063Z,2.27
2018-03-29T05:36:49.674Z,2.13
2018-03-29T05:39:17.159Z,2.10
2018-03-29T05:41:44.702Z,2.20
2018-03-29T05:44:12.190Z,2.50
2018-03-29T05:46:40.425Z,2.37
2018-03-29T05:49:07.933Z,2.80
2018-03-29T05:51:36.187Z,2.50
2018-03-29T05:54:03.700Z,2.10
2018-03-29T05:56:31.975Z,2.10
2018-03-29T05:58:59.590Z,2.93
2018-03-29T06:01:27.249Z,2.43
2018-03-29T06:03:54.809Z,2.63
2018-03-29T06:06:22.305Z,2.90
2018-03-29T06:08:50.567Z,2.63
2018-03-29T06:11:18.127Z,2.60
2018-03-29T06:13:45.602Z,2.17
2018-03-29T06:16:16.968Z,2.50
2018-03-29T06:18:44.523Z,2.33
2018-03-29T06:21:12.081Z,4.27
2018-03-29T06:23:39.641Z,2.57
2018-03-29T06:26:07.494Z,2.90
2018-03-29T06:28:34.975Z,2.33
2018-03-29T06:31:02.699Z,2.40
2018-03-29T06:33:30.173Z,2.20
2018-03-29T06:35:58.267Z,2.57
2018-03-29T06:38:25.824Z,6.00
2018-03-29T06:40:53.339Z,2.40
2018-03-29T06:43:22.267Z,3.80
2018-03-29T06:45:49.778Z,5.07
2018-03-29T06:48:20.805Z,3.87
2018-03-29T06:50:49.069Z,4.10
2018-03-29T06:53:16.559Z,7.87
2018-03-29T06:55:44.828Z,3.83
2018-03-29T06:58:12.402Z,4.03
2018-03-29T07:00:39.887Z,3.40
2018-03-29T07:03:07.381Z,3.07
2018-03-29T07:05:35.629Z,3.23
2018-03-29T07:08:03.176Z,3.17
2018-03-29T07:10:30.655Z,3.60
2018-03-29T07:12:58.293Z,3.40
2018-03-29T07:15:25.848Z,4.93
2018-03-29T07:17:53.345Z,3.07
2018-03-29T07:20:20.989Z,3.13
2018-03-29T07:22:48.471Z,3.33
2018-03-29T07:25:15.952Z,4.17
2018-03-29T07:27:43.419Z,5.47
2018-03-29T07:30:11.683Z,3.40
2018-03-29T07:32:39.195Z,7.23
2018-03-29T07:35:06.666Z,2.50
2018-03-29T07:37:34.140Z,5.00
2018-03-29T07:40:01.681Z,4.83
2018-03-29T07:42:29.250Z,4.27
2018-03-29T07:44:56.796Z,4.90
2018-03-29T07:47:24.267Z,4.20
2018-03-29T07:49:52.516Z,9.30
2018-03-29T07:52:20.016Z,5.53
2018-03-29T07:54:48.332Z,5.63
2018-03-29T07:57:15.957Z,6.30
2018-03-29T07:59:43.512Z,6.77
2018-03-29T08:02:11.032Z,5.90
2018-03-29T08:04:39.278Z,5.53
2018-03-29T08:07:06.783Z,5.00
2018-03-29T08:09:34.286Z,4.40
2018-03-29T08:12:01.817Z,5.43
2018-03-29T08:14:29.358Z,4.93
2018-03-29T08:16:57.660Z,3.97
2018-03-29T08:19:25.239Z,4.80
2018-03-29T08:21:52.716Z,5.40
2018-03-29T08:24:20.216Z,4.77
2018-03-29T08:26:47.692Z,4.43
2018-03-29T08:29:15.198Z,5.70
2018-03-29T08:31:42.687Z,5.63
2018-03-29T08:34:10.171Z,6.93
2018-03-29T08:36:37.698Z,6.47
2018-03-29T08:39:06.116Z,5.60
2018-03-29T08:41:34.444Z,6.97
2018-03-29T08:44:01.918Z,17.33
2018-03-29T08:46:31.038Z,15.40
2018-03-29T08:48:58.532Z,18.93
2018-03-29T08:51:26.072Z,9.67
2018-03-29T08:53:53.938Z,8.03
2018-03-29T08:56:23.261Z,6.90
2018-03-29T08:58:51.566Z,7.17
2018-03-29T09:01:19.066Z,4.90
2018-03-29T09:03:47.310Z,5.10
2018-03-29T09:06:14.832Z,4.30
2018-03-29T09:08:42.333Z,6.30
2018-03-29T09:11:09.870Z,7.73
2018-03-29T09:13:37.437Z,6.10
2018-03-29T09:16:04.950Z,6.33
2018-03-29T09:18:32.432Z,6.03
2018-03-29T09:20:59.978Z,6.17
2018-03-29T09:23:27.501Z,6.20
2018-03-29T09:25:55.083Z,4.77
2018-03-29T09:28:22.578Z,4.67
2018-03-29T09:30:50.808Z,4.10
2018-03-29T09:33:18.334Z,3.90
2018-03-29T09:35:45.817Z,4.27
2018-03-29T09:38:13.476Z,3.97
2018-03-29T09:40:41.045Z,4.57
2018-03-29T09:43:08.510Z,6.47
2018-03-29T09:45:36.055Z,4.60
2018-03-29T09:48:03.532Z,4.47
2018-03-29T09:50:31.817Z,8.33
2018-03-29T09:52:59.394Z,5.47
2018-03-29T09:55:27.774Z,7.63
2018-03-29T09:57:55.317Z,6.20
2018-03-29T10:00:28.458Z,9.77
2018-03-29T10:02:56.726Z,4.40
2018-03-29T10:05:29.866Z,6.53
2018-03-29T10:07:57.480Z,5.73
2018-03-29T10:10:24.968Z,5.10
2018-03-29T10:12:52.499Z,3.90
2018-03-29T10:15:19.993Z,4.77
2018-03-29T10:17:47.603Z,6.13
2018-03-29T10:20:15.157Z,4.83
2018-03-29T10:22:42.693Z,5.57
2018-03-29T10:25:11.094Z,3.77
2018-03-29T10:27:38.599Z,4.43
2018-03-29T10:30:06.112Z,4.00
2018-03-29T10:32:33.599Z,2.93
2018-03-29T10:35:01.124Z,3.00
2018-03-29T10:37:28.643Z,3.53
2018-03-29T10:39:56.150Z,3.00
2018-03-29T10:42:23.616Z,3.67
2018-03-29T10:44:51.162Z,4.07
2018-03-29T10:47:19.563Z,3.53
2018-03-29T10:49:47.123Z,3.00
2018-03-29T10:52:14.615Z,2.80
2018-03-29T10:54:42.107Z,4.13
2018-03-29T10:57:09.622Z,5.67
2018-03-29T10:59:37.938Z,4.03
2018-03-29T11:02:05.418Z,4.57
2018-03-29T11:04:32.894Z,4.43
2018-03-29T11:07:01.188Z,4.67
2018-03-29T11:09:28.751Z,3.40
2018-03-29T11:11:56.231Z,5.67
2018-03-29T11:14:23.869Z,4.87
2018-03-29T11:16:52.196Z,4.40
2018-03-29T11:19:19.677Z,4.20
2018-03-29T11:21:47.211Z,4.03
2018-03-29T11:24:14.704Z,4.30
2018-03-29T11:26:42.202Z,4.27
2018-03-29T11:29:09.734Z,3.73
2018-03-29T11:31:37.430Z,3.70
2018-03-29T11:34:04.918Z,3.30
2018-03-29T11:36:32.503Z,3.47
2018-03-29T11:39:00.035Z,3.30
2018-03-29T11:41:28.272Z,3.13
2018-03-29T11:43:55.776Z,3.50
2018-03-29T11:46:23.240Z,4.03
2018-03-29T11:48:50.713Z,3.30
2018-03-29T11:51:18.264Z,3.17
2018-03-29T11:53:45.770Z,3.00
2018-03-29T11:56:13.261Z,3.37
2018-03-29T11:58:40.774Z,3.43
2018-03-29T12:01:08.260Z,3.33
2018-03-29T12:03:35.724Z,3.10
2018-03-29T12:06:03.336Z,3.77
2018-03-29T12:08:30.964Z,3.13
2018-03-29T12:10:59.256Z,3.37
2018-03-29T12:13:26.820Z,4.30
2018-03-29T12:15:54.306Z,3.07
2018-03-29T12:18:21.806Z,3.53
2018-03-29T12:20:49.317Z,3.07
2018-03-29T12:23:16.876Z,3.23
2018-03-29T12:25:44.438Z,2.50
2018-03-29T12:28:12.862Z,2.80
2018-03-29T12:30:40.445Z,2.97
2018-03-29T12:33:07.921Z,4.00
2018-03-29T12:35:35.436Z,3.53
2018-03-29T12:38:02.938Z,3.90
2018-03-29T12:40:30.498Z,4.30
2018-03-29T12:42:58.058Z,3.40
2018-03-29T12:45:25.544Z,2.77
2018-03-29T12:47:53.807Z,3.23
2018-03-29T12:50:21.549Z,5.33
2018-03-29T12:52:49.005Z,3.70
2018-03-29T12:58:18.017Z,3.67
2018-03-29T13:00:45.584Z,3.60
2018-03-29T13:03:13.090Z,6.47
2018-03-29T13:05:41.921Z,3.00
2018-03-29T13:08:09.429Z,3.93
2018-03-29T13:10:36.967Z,2.77
2018-03-29T13:13:05.209Z,4.03
2018-03-29T13:15:32.694Z,2.93
2018-03-29T13:18:00.210Z,3.50
2018-03-29T13:20:27.709Z,2.57
2018-03-29T13:22:55.218Z,2.93
2018-03-29T13:25:22.742Z,4.10
2018-03-29T13:27:50.241Z,3.07
2018-03-29T13:30:17.720Z,3.20
2018-03-29T13:32:46.135Z,3.03
2018-03-29T13:35:13.633Z,3.47
2018-03-29T13:37:41.923Z,2.90
2018-03-29T13:40:10.230Z,4.57
2018-03-29T13:42:37.728Z,2.77
2018-03-29T13:45:05.239Z,2.60
2018-03-29T13:47:33.549Z,1.90
2018-03-29T13:50:01.029Z,3.93
2018-03-29T13:52:28.529Z,3.70
2018-03-29T13:54:56.838Z,3.40
2018-03-29T13:57:24.387Z,2.93
2018-03-29T13:59:51.906Z,3.50
2018-03-29T14:02:20.230Z,3.37
2018-03-29T14:04:47.718Z,3.60
2018-03-29T14:07:15.989Z,2.80
2018-03-29T14:09:43.501Z,3.90
2018-03-29T14:12:10.982Z,2.60
2018-03-29T14:14:38.461Z,4.83
2018-03-29T14:17:06.076Z,2.93
2018-03-29T14:19:33.580Z,3.57
2018-03-29T14:22:01.193Z,2.77
2018-03-29T14:24:28.691Z,3.67
2018-03-29T14:26:56.263Z,3.97
2018-03-29T14:29:23.807Z,3.63
2018-03-29T14:31:51.285Z,3.23
2018-03-29T14:34:19.013Z,2.87
2018-03-29T14:36:47.273Z,3.70
2018-03-29T14:39:14.894Z,3.00
2018-03-29T14:41:42.557Z,2.83
2018-03-29T14:44:10.043Z,2.30
2018-03-29T14:46:37.543Z,2.37
2018-03-29T14:49:05.174Z,1.97
2018-03-29T14:51:32.695Z,3.50
2018-03-29T14:54:01.003Z,2.90
2018-03-29T14:56:28.547Z,3.30
2018-03-29T14:58:56.054Z,2.17
2018-03-29T15:01:24.356Z,4.00
2018-03-29T15:03:51.821Z,2.87
2018-03-29T15:06:19.371Z,2.27
2018-03-29T15:08:46.850Z,1.80
2018-03-29T15:11:14.335Z,1.63
2018-03-29T15:13:41.923Z,3.60
2018-03-29T15:16:09.342Z,2.40
2018-03-29T15:18:37.572Z,3.43
2018-03-29T15:21:05.064Z,2.17
2018-03-29T15:23:33.352Z,1.80
2018-03-29T15:26:02.063Z,2.40
2018-03-29T15:28:30.145Z,2.90
2018-03-29T15:30:57.650Z,2.20
2018-03-29T15:33:25.171Z,1.97
2018-03-29T15:35:52.675Z,1.80
2018-03-29T15:38:20.192Z,1.90
2018-03-29T15:40:47.684Z,2.37
2018-03-29T15:43:15.994Z,1.47
2018-03-29T15:45:43.569Z,1.90
2018-03-29T15:48:11.072Z,6.80
2018-03-29T15:50:38.557Z,2.63
2018-03-29T15:53:06.193Z,2.50
2018-03-29T15:55:33.751Z,1.53
2018-03-29T15:58:01.255Z,2.50
2018-03-29T16:00:28.733Z,1.90
2018-03-29T16:02:56.991Z,1.90
2018-03-29T16:05:24.510Z,1.53
2018-03-29T16:07:52.002Z,1.87
2018-03-29T16:10:19.505Z,1.60
2018-03-29T16:12:47.087Z,2.20
2018-03-29T16:15:14.904Z,1.63
2018-03-29T16:17:42.454Z,1.70
2018-03-29T16:20:09.982Z,2.50
2018-03-29T16:22:38.221Z,1.83
2018-03-29T16:25:05.723Z,2.17
2018-03-29T16:27:33.914Z,1.33
2018-03-29T16:30:01.410Z,2.10
2018-03-29T16:32:28.928Z,2.10
2018-03-29T16:34:56.416Z,2.10
2018-03-29T16:37:23.935Z,3.43
2018-03-29T16:39:51.525Z,2.50
2018-03-29T16:42:18.999Z,2.23
2018-03-29T16:44:46.512Z,2.60
2018-03-29T16:47:14.082Z,2.43
2018-03-29T16:49:41.616Z,4.13
2018-03-29T16:52:10.232Z,2.70
2018-03-29T16:54:37.742Z,3.90
2018-03-29T16:57:06.041Z,3.00
2018-03-29T16:59:33.553Z,1.90
2018-03-29T17:02:01.047Z,2.10
2018-03-29T17:04:29.289Z,1.97
2018-03-29T17:06:56.765Z,2.50
2018-03-29T17:09:24.238Z,1.70
2018-03-29T17:11:51.723Z,1.80
2018-03-29T17:14:19.209Z,1.57
2018-03-29T17:16:46.720Z,1.93
2018-03-29T17:19:14.236Z,1.83
2018-03-29T17:21:42.475Z,1.67
2018-03-29T17:24:10.005Z,2.90
2018-03-29T17:26:37.577Z,1.80
2018-03-29T17:29:05.854Z,2.40
2018-03-29T17:31:33.334Z,2.60
2018-03-29T17:34:00.796Z,2.03
2018-03-29T17:36:28.285Z,2.40
2018-03-29T17:38:56.518Z,2.00
2018-03-29T17:41:24.060Z,2.50
2018-03-29T17:43:51.559Z,2.10
2018-03-29T17:46:19.071Z,2.20
2018-03-29T17:48:47.337Z,2.03
2018-03-29T17:51:15.054Z,1.93
2018-03-29T17:53:42.560Z,1.70
2018-03-29T17:56:10.079Z,1.77
2018-03-29T17:58:37.595Z,1.70
2018-03-29T18:01:05.115Z,1.87
2018-03-29T18:03:32.621Z,1.50
2018-03-29T18:06:01.315Z,1.60
2018-03-29T18:08:29.625Z,1.90
2018-03-29T18:10:57.112Z,3.77
2018-03-29T18:13:24.641Z,3.50
2018-03-29T18:15:52.157Z,2.90
2018-03-29T18:18:19.674Z,2.80
2018-03-29T18:20:47.213Z,2.60
2018-03-29T18:23:14.645Z,2.30
2018-03-29T18:25:42.272Z,3.03
2018-03-29T18:28:09.749Z,2.93
2018-03-29T18:30:37.258Z,2.97
2018-03-29T18:33:04.914Z,2.63
2018-03-29T18:35:32.439Z,2.40
2018-03-29T18:37:59.986Z,2.37
2018-03-29T18:40:27.493Z,2.63
2018-03-29T18:42:55.107Z,2.37
2018-03-29T18:45:22.606Z,2.30
2018-03-29T18:47:50.083Z,2.77
2018-03-29T18:50:17.598Z,2.30
2018-03-29T18:52:45.080Z,2.10
2018-03-29T18:55:14.148Z,2.30
2018-03-29T18:57:41.659Z,1.80
2018-03-29T19:00:09.139Z,1.98
2018-03-29T19:02:36.655Z,2.00
2018-03-29T19:05:04.198Z,2.00
2018-03-29T19:07:31.873Z,1.80
2018-03-29T19:09:59.364Z,2.07
2018-03-29T19:12:26.861Z,2.50
2018-03-29T19:14:55.131Z,2.50
2018-03-29T19:17:22.628Z,2.13
2018-03-29T19:19:50.148Z,2.17
2018-03-29T19:22:17.690Z,2.20
2018-03-29T19:24:45.173Z,2.50
2018-03-29T19:27:12.693Z,2.00
2018-03-29T19:29:40.245Z,2.10
2018-03-29T19:32:07.847Z,2.00
2018-03-29T19:34:35.401Z,1.90
2018-03-29T19:37:03.699Z,2.87
2018-03-29T19:39:31.947Z,2.50
2018-03-29T19:41:59.565Z,2.37
2018-03-29T19:44:27.125Z,1.90
2018-03-29T19:46:56.205Z,2.00
2018-03-29T19:49:23.733Z,2.13
2018-03-29T19:51:52.001Z,2.20
2018-03-29T19:54:20.239Z,2.53
2018-03-29T19:56:47.719Z,2.63
2018-03-29T19:59:15.788Z,2.20
2018-03-29T20:01:43.287Z,2.60
2018-03-29T20:04:10.771Z,2.50
2018-03-29T20:06:38.387Z,3.57
2018-03-29T20:09:05.877Z,2.17
2018-03-29T20:11:34.141Z,3.30
2018-03-29T20:14:02.394Z,2.10
2018-03-29T20:16:30.806Z,2.53
2018-03-29T20:18:58.306Z,3.40
2018-03-29T20:21:25.807Z,2.60
2018-03-29T20:23:53.314Z,2.37
2018-03-29T20:26:21.554Z,2.57
2018-03-29T20:28:49.088Z,3.10
2018-03-29T20:31:17.370Z,2.90
2018-03-29T20:33:44.943Z,3.30
2018-03-29T20:36:12.436Z,2.80
2018-03-29T20:38:39.958Z,6.23
2018-03-29T20:41:08.280Z,4.27
2018-03-29T20:43:35.768Z,3.23
2018-03-29T20:46:04.039Z,2.87
2018-03-29T20:48:31.620Z,2.40
2018-03-29T20:50:59.179Z,2.93
2018-03-29T20:53:26.834Z,2.50
2018-03-29T20:55:54.519Z,2.67
2018-03-29T20:58:22.046Z,3.63
2018-03-29T21:00:49.548Z,3.20
2018-03-29T21:03:17.871Z,3.13
2018-03-29T21:05:45.352Z,2.10
2018-03-29T21:08:12.846Z,2.60
2018-03-29T21:10:40.354Z,3.07
2018-03-29T21:13:07.864Z,4.80
2018-03-29T21:15:36.139Z,2.70
2018-03-29T21:18:03.628Z,3.10
2018-03-29T21:20:31.160Z,2.70
2018-03-29T21:22:58.722Z,2.90
2018-03-29T21:25:26.221Z,2.57
2018-03-29T21:27:53.735Z,2.70
2018-03-29T21:30:21.210Z,2.70
2018-03-29T21:32:48.739Z,3.13
2018-03-29T21:35:16.359Z,2.47
2018-03-29T21:37:43.811Z,2.60
2018-03-29T21:40:11.324Z,2.43
2018-03-29T21:42:38.816Z,3.03
2018-03-29T21:45:06.321Z,2.40
2018-03-29T21:47:33.909Z,3.37
2018-03-29T21:50:01.438Z,3.20
2018-03-29T21:52:29.740Z,2.77
2018-03-29T21:54:57.245Z,2.70
2018-03-29T21:57:24.771Z,2.50
2018-03-29T21:59:52.426Z,2.30
2018-03-29T22:02:19.923Z,2.53
2018-03-29T22:04:47.444Z,2.40
2018-03-29T22:07:14.930Z,3.33
2018-03-29T22:09:42.432Z,2.77
2018-03-29T22:12:09.965Z,2.47
2018-03-29T22:14:37.551Z,2.90
2018-03-29T22:17:05.801Z,2.90
2018-03-29T22:19:33.367Z,2.57
2018-03-29T22:22:00.807Z,2.57
2018-03-29T22:24:28.297Z,2.93
2018-03-29T22:26:55.804Z,3.33
2018-03-29T22:29:24.044Z,2.63
2018-03-29T22:31:51.574Z,2.30
2018-03-29T22:34:19.049Z,2.83
2018-03-29T22:36:46.545Z,2.50
2018-03-29T22:39:14.028Z,2.83
2018-03-29T22:41:42.295Z,2.60
2018-03-29T22:44:10.587Z,3.03
2018-03-29T22:46:38.063Z,3.07
2018-03-29T22:49:05.615Z,2.90
2018-03-29T22:51:33.103Z,2.80
2018-03-29T22:54:00.585Z,2.87
2018-03-29T22:56:28.204Z,2.57
2018-03-29T22:58:55.727Z,3.47
2018-03-29T23:01:24.001Z,5.90
2018-03-29T23:03:52.854Z,2.87
2018-03-29T23:06:20.513Z,2.50
2018-03-29T23:08:48.015Z,3.67
2018-03-29T23:11:15.633Z,6.93
2018-03-29T23:13:43.131Z,2.30
2018-03-29T23:16:10.632Z,2.43
2018-03-29T23:18:38.911Z,2.90
2018-03-29T23:21:06.453Z,2.87
2018-03-29T23:23:34.460Z,2.60
2018-03-29T23:26:02.012Z,2.93
2018-03-29T23:28:29.507Z,2.90
2018-03-29T23:30:57.021Z,2.63
2018-03-29T23:33:24.500Z,2.97
2018-03-29T23:35:52.781Z,3.33
2018-03-29T23:38:20.316Z,3.23
2018-03-29T23:40:47.795Z,3.07
2018-03-29T23:43:15.291Z,2.50
2018-03-29T23:45:43.604Z,2.67
2018-03-29T23:48:22.053Z,3.13
2018-03-29T23:50:49.538Z,7.53
2018-03-29T23:53:17.063Z,3.50
2018-03-29T23:55:45.069Z,5.87
2018-03-29T23:58:17.311Z,4.70
